Language selection

My Weather Profile Weather Topics  | 

Pacific - North Coast: Past 24 Hour Conditions

 

Sandspit Airport

11:00 AM PST 16 January 2022
Disclaimer

This table is a summary of hourly weather conditions for the past 24 hours.
Please note that these observations might not always be representative of weather conditions over their associated marine area.

Date / Time
(PST)
Wind(knots) Conditions Visibility(km) Pressure(kPa) Air tempC) Relative humidity(%) Dew pointC)
16 January 2022
11:00 ESE 2 Mist 6 100.8 8 96 7
10:00 ENE 5 Mist 4 100.7 6 97 6
9:00 E 2 Mostly Cloudy 11 100.7 6 98 6
8:00 SW 5 Light Rain 16 100.7 7 98 7
7:00 SE 7 Cloudy 16 100.7 6 98 6
6:00 SSE 5 Light Rain 6 100.8 6 98 6
5:00 S 4 Light Rain 8 100.9 7 98 6
4:00 SSE 14 gust 19 Light Rain 5 100.9 7 97 6
3:00 S 4 gust 18 Light Rain 11 101.1 6 96 5
2:00 SSE 24 gust 31 Light Rain 5 101.1 7 97 6
1:00 SSE 19 Light Rain 6 101.3 7 97 6
0:00 S 3 Light Rain 5 101.4 6 96 6
15 January 2022
23:00 SE 23 gust 32 Light Rain 5 101.5 6 96 5
22:00 SSE 31 gust 38 Light Rain 8 101.6 6 94 5
21:00 SE 26 gust 35 Light Rain 6 101.7 5 94 5
20:00 SE 20 Light Rain 6 101.9 5 94 5
19:00 SSE 19 Light Rain 8 102.0 5 94 5
18:00 SE 20 Light Rain 11 102.1 5 96 5
17:00 SE 8 Light Rain 8 102.2 5 95 4
16:00 SE 6 Light Rain 16 102.2 5 94 4
15:00 SE 6 Light Rain 16 102.3 5 93 4
14:00 S 4 Light Rain 16 102.3 5 92 4
13:00 S 9 Light Rain 16 102.3 6 90 4
12:00 S 9 Light Rain 16 102.3 6 88 4
11:00 S 9 Cloudy 16 102.3 6 88 4

Zoom-in to make a selection

Map of Pacific - North Coast marine weather areas Middle Nomad - 46004 South Nomad - 46036 Dixon Entrance Central - 46145 South Moresby - 46147 Nanakwa Shoal - 46181 North Hecate Strait - 46183 North Nomad - 46184 South Hecate Strait - 46185 West Sea Otter - 46204 West Dixon Entrance - 46205 East Dellwood - 46207 West Moresby - 46208 Sartine Island Cape St.James Kindakun Rocks Langara Island Masset Municipal Airport Rose Spit Sandspit Airport Bella Bella Airport Bella Coola Airport Bonilla Island Cathedral Point Cumshewa Island Grey Islet Holland Rock Lucy Islands Lightstation Prince Rupert Airport
Legend:
buoy Buoy
land station Land Station

Pacific - North Coast Area

Another Region

What we are doing

Features

Hello Weather

Hello Weather: our upgraded telephone weather service is here. 1-833-794-3556 or 1-833-79HELLO.

Date modified: